McGregor, TX

11:55 PM CDT on June 29, 2015 (GMT -0500)
Trane - Waco Manufacturing Facility | | Change Station
CLOSE
Current Station
Personal Weather Station
Location: McGregor, TX
Elevation: 656 ft
Nearby Weather Stations

Elev 656 ft 31.46 °N, 97.35 °W | Updated 9 minutes ago

Clear
Clear
79.2 °F
Feels Like 83 °F
N
2.0
Wind Variable Wind from SE
Gusts 4.0 mph

Today
High -- | Low -- °F
--% Chance of Precip.
Yesterday
High -- | Low -- °F
Precip. -- in
6:27 AM 8:38 PM
Waxing Gibbous, 96% visible
Pressure 30.00 in
Visibility 10.0 miles
Clouds Clear
Heat Index 83 °F
Dew Point 74 °F
Humidity 84%
Rainfall 0.00 in
Snow Depth Not available.
UV 0 out of 12
Pollen 3.90 out of 12
Air Quality Not available.
Flu Activity Local Activity
METAR KPWG 300435Z AUTO 18008KT 10SM CLR 26/21 A3000 RMK AO1

More Conditions Fewer Conditions

Pressure 30.00 in
Visibility 10.0 miles
Clouds Clear
Heat Index 83 °F
Dew Point 74 °F
Humidity 84%
Rainfall 0.00 in
Snow Depth Not available.
UV 0 out of 12
Pollen 3.90 out of 12
Air Quality Not available.
Flu Activity Local Activity
METAR KPWG 300435Z AUTO 18008KT 10SM CLR 26/21 A3000 RMK AO1

More Conditions Fewer Conditions

Nowcast | as of 10:37 PM CDT on June 29, 2015

Isolated showers and thunderstorms will continue to move across Fannin and Lamar counties through midnight. Cloud to ground lightning is the primary hazard. The remainder of north and central Texas will continue to see party cloudy skies with temperatures in the mid 70s away from urban areas...and in the low 80s for most urban areas.

×

10-Day Weather Forecast

×

Almanac

Astronomy

Jun. 29, 2015 Rise Set
Actual Time
Civil Twilight
Nautical Twilight
Astronomical Twilight
Moon
Length of Visible Light
Length of Day
Tomorrow will be .
, % of the Moon is Illuminated

Today's Extremes

State Highs State Lows

Community

WunderPhotos

Upload Photos

1,833,965 photos uploaded!

WunderBlogs® & News

Nearby

Air Quality

  Air Quality AQ Index Pollutant
Not available.

Snow Depth

Station Depth Elevation

Earthquake Activity

City Distance Mag. Time & Date
Minimum magnitude displayed is 2.5.

Coastal Water Temperatures

Place Temperature

Stations

Nearby Weather Stations

Station Location Temp. Windchill Dew Point Humidity Wind Precip. Elev Updated Type